Time;durP1;ratioP1;P1;durP2;ratioP2;P2;SDS_P1;SDS_P2;PMS_P1;PMS_P2;Temp;Humidity;BMP_temperature;BMP_pressure;BME280_temperature;BME280_humidity;BME280_pressure;Samples;Min_cycle;Max_cycle;Signal;HPM_P1;HPM_P2
2023/09/04 03:22:31;;;;;;;0.95;0.55;;;23.30;89.50;;;;;;6427988;27;20317;-52
2023/09/04 03:25:36;;;;;;;0.60;0.50;;;23.30;75.60;;;;;;6414437;27;20248;-55
2023/09/04 03:28:38;;;;;;;2.35;0.60;;;23.10;74.80;;;;;;6412995;27;20067;-52
2023/09/04 03:31:40;;;;;;;2.67;0.80;;;23.60;74.50;;;;;;6410575;27;20065;-52
2023/09/04 03:34:41;;;;;;;1.40;0.40;;;23.10;77.80;;;;;;6406691;27;20062;-52
2023/09/04 03:37:48;;;;;;;1.13;0.40;;;23.70;76.30;;;;;;6417620;27;20038;-51
2023/09/04 03:40:51;;;;;;;0.60;0.40;;;23.90;75.50;;;;;;6417797;27;20690;-52
2023/09/04 03:43:55;;;;;;;1.60;0.50;;;24.00;74.40;;;;;;6411012;27;20061;-50
2023/09/04 03:46:56;;;;;;;1.27;0.40;;;24.00;74.30;;;;;;6413484;27;20321;-52
2023/09/04 03:49:58;;;;;;;0.70;0.50;;;24.00;73.70;;;;;;6399112;27;20046;-53
2023/09/04 03:53:03;;;;;;;0.95;0.57;;;24.10;73.50;;;;;;6415869;27;20450;-47
2023/09/04 03:56:06;;;;;;;1.50;0.60;;;24.20;73.00;;;;;;6394271;27;20525;-49
2023/09/04 03:59:07;;;;;;;2.10;0.50;;;24.20;73.20;;;;;;6396672;27;20058;-47
2023/09/04 04:02:09;;;;;;;0.40;0.40;;;24.20;72.40;;;;;;6392728;27;20030;-48
2023/09/04 04:05:12;;;;;;;0.40;0.30;;;24.30;73.00;;;;;;6379169;27;20043;-50
2023/09/04 04:08:14;;;;;;;0.47;0.47;;;23.80;71.60;;;;;;6367582;27;20084;-48
2023/09/04 04:11:19;;;;;;;0.32;0.32;;;24.20;71.80;;;;;;6392375;27;20043;-51
2023/09/04 04:14:20;;;;;;;0.55;0.40;;;24.30;71.60;;;;;;6382918;27;20037;-49
2023/09/04 04:17:22;;;;;;;0.30;0.30;;;24.40;71.80;;;;;;6393879;27;20042;-52
2023/09/04 04:20:23;;;;;;;0.50;0.40;;;24.40;71.20;;;;;;6386403;27;20031;-47
2023/09/04 04:23:26;;;;;;;0.38;0.30;;;24.00;71.10;;;;;;6396807;27;20045;-51
2023/09/04 04:26:27;;;;;;;0.50;0.40;;;24.30;70.80;;;;;;6394339;27;20041;-47
2023/09/04 04:29:29;;;;;;;0.50;0.35;;;24.00;70.90;;;;;;6388300;27;20037;-52
2023/09/04 04:32:32;;;;;;;1.10;0.50;;;24.40;71.70;;;;;;6369861;27;20050;-51
2023/09/04 04:35:34;;;;;;;0.50;0.40;;;24.40;71.00;;;;;;6375138;27;20810;-47
2023/09/04 04:38:36;;;;;;;0.35;0.30;;;24.10;70.50;;;;;;6376000;27;20027;-50
2023/09/04 04:41:39;;;;;;;0.28;0.28;;;24.40;70.80;;;;;;6367128;27;20207;-51
2023/09/04 04:44:43;;;;;;;0.30;0.30;;;24.30;70.50;;;;;;6371224;27;20043;-50
2023/09/04 04:47:45;;;;;;;0.85;0.50;;;24.50;70.70;;;;;;6364320;27;20031;-48
2023/09/04 04:50:47;;;;;;;0.40;0.30;;;24.40;70.60;;;;;;6372175;27;20517;-51
2023/09/04 04:53:50;;;;;;;0.60;0.50;;;24.40;70.70;;;;;;6361842;27;20109;-51
2023/09/04 04:56:51;;;;;;;0.70;0.50;;;24.10;70.30;;;;;;6369992;27;20042;-49
2023/09/04 04:59:53;;;;;;;0.90;0.50;;;24.40;70.60;;;;;;6372551;27;20062;-50
2023/09/04 05:02:54;;;;;;;0.50;0.40;;;24.50;70.50;;;;;;6365392;27;20058;-49
2023/09/04 05:06:00;;;;;;;0.40;0.40;;;24.50;70.60;;;;;;6358728;27;20396;-50
2023/09/04 05:09:03;;;;;;;0.30;0.30;;;24.50;70.00;;;;;;6365234;27;20563;-52
2023/09/04 05:12:06;;;;;;;0.55;0.30;;;24.50;70.40;;;;;;6365090;27;20039;-49
2023/09/04 05:15:09;;;;;;;0.30;0.30;;;24.50;70.30;;;;;;6344097;27;20233;-51
2023/09/04 05:18:11;;;;;;;0.30;0.30;;;24.50;70.40;;;;;;6360199;27;20022;-47
2023/09/04 05:21:14;;;;;;;0.43;0.40;;;24.50;70.40;;;;;;6363621;27;20045;-52
2023/09/04 05:24:16;;;;;;;0.68;0.40;;;24.50;70.50;;;;;;6364190;27;20032;-51
2023/09/04 05:27:20;;;;;;;0.30;0.30;;;24.60;70.00;;;;;;6356084;27;20031;-47
2023/09/04 05:30:21;;;;;;;0.70;0.50;;;24.10;70.70;;;;;;6366019;27;20045;-49
2023/09/04 05:33:22;;;;;;;0.40;0.30;;;24.60;70.90;;;;;;6366957;27;20034;-50
2023/09/04 05:36:26;;;;;;;0.50;0.32;;;24.50;70.40;;;;;;6371358;27;20062;-50
2023/09/04 05:39:30;;;;;;;0.40;0.20;;;24.50;70.20;;;;;;6360354;27;20042;-50
2023/09/04 05:42:31;;;;;;;0.65;0.40;;;24.50;70.30;;;;;;6366052;27;20075;-49
2023/09/04 05:45:33;;;;;;;0.40;0.30;;;24.50;70.30;;;;;;6364700;27;20076;-47
2023/09/04 05:48:34;;;;;;;0.60;0.50;;;24.40;71.10;;;;;;6358662;27;20074;-48
2023/09/04 05:51:36;;;;;;;0.40;0.30;;;24.50;71.00;;;;;;6341801;27;20042;-47
2023/09/04 05:54:38;;;;;;;0.47;0.47;;;24.40;70.60;;;;;;6365883;27;20038;-51
2023/09/04 05:57:39;;;;;;;0.57;0.47;;;24.50;70.50;;;;;;6354359;27;20735;-47
2023/09/04 06:00:46;;;;;;;0.43;0.40;;;24.40;70.70;;;;;;6352874;27;20031;-49
2023/09/04 06:03:48;;;;;;;0.52;0.40;;;24.50;67.90;;;;;;6354261;27;20516;-47
2023/09/04 06:06:50;;;;;;;0.60;0.38;;;24.40;70.60;;;;;;6341815;27;20629;-48
2023/09/04 06:09:54;;;;;;;0.43;0.40;;;24.10;70.10;;;;;;6353428;27;20046;-49
2023/09/04 06:12:57;;;;;;;0.63;0.40;;;24.50;70.50;;;;;;6344139;27;20034;-45
2023/09/04 06:15:59;;;;;;;0.70;0.50;;;24.60;70.60;;;;;;6353949;27;20076;-45
2023/09/04 06:19:00;;;;;;;0.52;0.40;;;23.90;70.10;;;;;;6332165;27;20022;-48
2023/09/04 06:22:02;;;;;;;0.40;0.30;;;24.50;70.80;;;;;;6335121;27;20031;-46
2023/09/04 06:25:05;;;;;;;0.40;0.40;;;24.60;70.70;;;;;;6345099;27;20111;-44
2023/09/04 06:28:10;;;;;;;0.57;0.50;;;24.60;70.30;;;;;;6359995;27;20099;-48
2023/09/04 06:31:11;;;;;;;3.58;0.55;;;24.30;70.80;;;;;;6322867;27;20038;-47
2023/09/04 06:34:13;;;;;;;0.70;0.45;;;24.40;71.10;;;;;;6336530;27;21161;-46
2023/09/04 06:37:14;;;;;;;1.52;0.80;;;24.60;71.10;;;;;;6334272;27;20030;-45
2023/09/04 06:40:22;;;;;;;1.08;0.63;;;24.70;71.50;;;;;;6338727;27;20042;-47
2023/09/04 06:43:23;;;;;;;1.15;0.57;;;24.60;70.80;;;;;;6321779;27;20787;-46
2023/09/04 06:46:25;;;;;;;0.70;0.60;;;25.20;71.20;;;;;;6303538;27;20034;-47
2023/09/04 06:49:27;;;;;;;0.60;0.50;;;24.50;71.30;;;;;;6333960;27;20110;-45
2023/09/04 06:52:30;;;;;;;1.98;0.80;;;24.60;71.20;;;;;;6308490;27;20078;-47
2023/09/04 06:55:32;;;;;;;0.80;0.73;;;24.70;71.10;;;;;;6328751;27;20662;-48
2023/09/04 06:58:34;;;;;;;1.02;0.80;;;25.10;71.10;;;;;;6323156;27;20611;-45
2023/09/04 07:01:36;;;;;;;0.90;0.68;;;24.70;71.10;;;;;;6317166;27;20320;-47
2023/09/04 07:04:38;;;;;;;3.08;0.60;;;24.60;71.30;;;;;;6313298;27;20675;-46
2023/09/04 07:07:42;;;;;;;0.60;0.60;;;24.80;71.20;;;;;;6327448;27;20045;-45
2023/09/04 07:10:44;;;;;;;0.75;0.65;;;24.80;71.60;;;;;;6321408;27;20039;-47
2023/09/04 07:13:45;;;;;;;3.75;0.70;;;24.60;71.00;;;;;;6315736;27;20031;-47
2023/09/04 07:16:49;;;;;;;0.57;0.50;;;24.90;71.20;;;;;;6320436;27;20038;-45
2023/09/04 07:20:10;;;;;;;0.80;0.70;;;24.50;89.20;;;;;;6297000;27;20027;-44
2023/09/04 07:23:14;;;;;;;1.83;0.90;;;24.70;86.80;;;;;;6318743;27;20155;-47
2023/09/04 07:26:24;;;;;;;1.25;0.90;;;24.30;70.50;;;;;;6318779;27;20031;-43
2023/09/04 08:18:28;;;;;;;0.80;0.65;;;23.90;84.50;;;;;;6397652;27;20759;-50
2023/09/04 08:21:30;;;;;;;0.80;0.63;;;24.00;70.90;;;;;;6376553;27;20672;-50
2023/09/04 08:24:40;;;;;;;0.63;0.60;;;24.40;71.10;;;;;;6373414;27;20944;-52
2023/09/04 08:27:42;;;;;;;1.00;0.70;;;24.40;70.60;;;;;;6348875;27;20076;-51
2023/09/04 08:30:43;;;;;;;1.33;0.80;;;24.50;70.80;;;;;;6371704;27;20034;-52
2023/09/04 08:33:55;;;;;;;0.75;0.70;;;24.40;71.40;;;;;;6400222;27;20294;-52
2023/09/04 08:36:56;;;;;;;0.70;0.60;;;24.80;69.60;;;;;;6372880;27;20042;-53
2023/09/04 08:39:58;;;;;;;1.27;0.80;;;24.90;70.00;;;;;;6369481;27;20026;-52
2023/09/04 08:43:00;;;;;;;1.15;0.80;;;24.90;68.90;;;;;;6373123;27;20030;-54
2023/09/04 08:46:03;;;;;;;2.03;0.70;;;25.00;68.80;;;;;;6358331;27;20041;-51
2023/09/04 08:49:09;;;;;;;0.82;0.70;;;23.50;68.10;;;;;;6324359;27;20044;-53
2023/09/04 08:52:13;;;;;;;0.90;0.60;;;25.10;68.70;;;;;;6354482;27;20041;-52
2023/09/04 08:55:16;;;;;;;0.85;0.70;;;25.20;68.30;;;;;;6366519;27;20109;-53
2023/09/04 08:58:18;;;;;;;0.85;0.68;;;23.80;67.40;;;;;;6354856;27;20041;-53
2023/09/04 09:01:20;;;;;;;1.02;0.65;;;25.20;68.30;;;;;;6337075;27;20035;-53
2023/09/04 09:04:23;;;;;;;1.17;0.60;;;25.20;68.10;;;;;;6342536;27;21039;-51
2023/09/04 09:07:27;;;;;;;0.80;0.63;;;25.20;67.40;;;;;;6346722;27;20047;-52
2023/09/04 09:11:57;;;;;;;1.90;0.77;;;25.20;67.90;;;;;;6396076;27;20200;-53
2023/09/04 09:15:00;;;;;;;0.63;0.50;;;25.30;67.10;;;;;;6366133;27;20027;-52
2023/09/04 09:18:02;;;;;;;0.85;0.60;;;25.40;67.50;;;;;;6336138;27;20033;-55
